Stella Polaris — PEBD — position and weather

sailwx.info

Track history (hours):
 
Tides and Currents Weather Stations Pressure Air Temp Water Temp Dewpoint Dewpoint Depression Visibility Wind Speed Wind Dir Waves Ship Positions

Stella Polaris

Last reported at 2017-Oct-14 22:34 UTC. Time now 2017-Oct-19 09:27 UTC.
Position N 50°07' W 008°10'.

Length 117 m; draft 6.7 m.

Type: Ship (hazmat cat A). MMSI: 245911000.

Date/timePositionNaut miles runAvg speedWind from/ knotsBaromVisibWave heightAir tempDewpointWater temp
2017-Oct-14 22:34N 50°07' W 008°10'113.5
2017-Oct-14 22:30N 50°06' W 008°08'713.5
2017-Oct-14 22:00N 50°04' W 007°59'913.4
2017-Oct-14 21:22N 50°01' W 007°46'513.5
2017-Oct-14 20:57N 49°60' W 007°38'5613.7
2017-Oct-14 16:52N 49°44' W 006°15'2014.0
2017-Oct-14 15:27N 49°46' W 005°44'1313.9
2017-Oct-14 14:32N 49°48' W 005°25'313.5
2017-Oct-14 14:17N 49°48' W 005°20'413.3
2017-Oct-14 13:59N 49°48' W 005°13'613.2
2017-Oct-14 13:30N 49°49' W 005°04'1213.3
2017-Oct-14 12:38N 49°52' W 004°46'213.3
2017-Oct-14 12:30N 49°52' W 004°43'713.4
2017-Oct-14 12:00N 49°53' W 004°34'713.6
2017-Oct-14 11:29N 49°55' W 004°23'813.9
2017-Oct-14 10:57N 49°57' W 004°11'614.0
2017-Oct-14 10:31N 49°58' W 004°02'714.2
2017-Oct-14 10:00N 49°59' W 003°51'814.6
2017-Oct-14 09:29N 50°01' W 003°40'715.0
2017-Oct-14 09:00N 50°03' W 003°29'815.2
2017-Oct-14 08:31N 50°04' W 003°17'815.3
2017-Oct-14 08:01N 50°06' W 003°06'815.2
2017-Oct-14 07:30N 50°08' W 002°54'815.1
2017-Oct-14 07:01N 50°09' W 002°43'914.7
2017-Oct-14 06:25N 50°11' W 002°29'3213.4
2017-Oct-14 04:00N 50°18' W 001°40'4412.4
2017-Oct-14 00:25N 50°27' W 000°32'613.7
2017-Oct-14 00:00N 50°29' W 000°23'714.2
2017-Oct-13 23:30N 50°30' W 000°12'714.6
2017-Oct-13 23:00N 50°32' W 000°01'714.8
2017-Oct-13 22:30N 50°33' E 000°10'814.9
2017-Oct-13 21:58N 50°35' E 000°23'714.9
2017-Oct-13 21:30N 50°36' E 000°33'714.4
2017-Oct-13 21:01N 50°40' E 000°43'714.2
2017-Oct-13 20:30N 50°44' E 000°52'1913.2
2017-Oct-13 19:05N 50°55' E 001°17'212.5
2017-Oct-13 18:57N 50°56' E 001°19'512.1
2017-Oct-13 18:30N 50°60' E 001°25'611.7
2017-Oct-13 18:00N 51°04' E 001°32'611.2
2017-Oct-13 17:30N 51°08' E 001°38'611.7
2017-Oct-13 17:00N 51°12' E 001°44'612.2
2017-Oct-13 16:30N 51°17' E 001°50'713.1
2017-Oct-13 16:00N 51°22' E 001°56'611.2
2017-Oct-13 15:31N 51°24' E 002°05'813.9
2017-Oct-13 14:58N 51°21' E 002°16'713.8
2017-Oct-13 14:29N 51°22' E 002°26'714.3
2017-Oct-13 14:00N 51°23' E 002°37'712.4
2017-Oct-13 13:28N 51°22' E 002°48'714.7
2017-Oct-13 13:01N 51°23' E 002°58'714.4
2017-Oct-13 12:30N 51°24' E 003°10'815.2
2017-Oct-13 12:01N 51°25' E 003°22'815.1
2017-Oct-13 11:30N 51°26' E 003°34'510.5
2017-Oct-13 11:00N 51°24' E 003°42'612.3
2017-Oct-13 10:30N 51°20' E 003°49'0 0.3
2017-Oct-13 10:00N 51°20' E 003°49'2 5.0
2017-Oct-13 09:30N 51°17' E 003°50'3 6.3
2017-Oct-13 09:00N 51°14' E 003°49'2 3.7
2017-Oct-13 08:30N 51°12' E 003°48'0 0.0
2017-Oct-13 08:00N 51°12' E 003°48'0 0.0
2017-Oct-13 07:30N 51°12' E 003°48'0 0.0
2017-Oct-13 07:00N 51°12' E 003°48'0 0.0
2017-Oct-13 06:30N 51°12' E 003°48'0 0.0
2017-Oct-13 05:57N 51°12' E 003°48'0 0.0
2017-Oct-13 05:30N 51°12' E 003°48'0 0.0
2017-Oct-13 05:00N 51°12' E 003°48'0 0.0
2017-Oct-13 04:30N 51°12' E 003°48'0 0.0
2017-Oct-13 04:00N 51°12' E 003°48'0 0.0
2017-Oct-13 03:30N 51°12' E 003°48'0 0.0
2017-Oct-13 03:00N 51°12' E 003°48'0 0.0
2017-Oct-13 02:30N 51°12' E 003°48'0 0.0
2017-Oct-13 02:00N 51°12' E 003°48'0 0.0
2017-Oct-13 01:30N 51°12' E 003°48'0 0.0
2017-Oct-13 01:00N 51°12' E 003°48'0 0.0
2017-Oct-13 00:30N 51°12' E 003°48'0 0.0
2017-Oct-13 00:00N 51°12' E 003°48'0 0.0
2017-Oct-12 23:30N 51°12' E 003°48'0 0.0
2017-Oct-12 23:00N 51°12' E 003°48'0 0.0
2017-Oct-12 22:30N 51°12' E 003°48'0 0.0
2017-Oct-12 22:00N 51°12' E 003°48'0 0.0
2017-Oct-12 21:30N 51°12' E 003°48'0 0.0
2017-Oct-12 21:00N 51°12' E 003°48'0 0.0
2017-Oct-12 20:30N 51°12' E 003°48'0 0.0
2017-Oct-12 19:57N 51°12' E 003°48'0 0.0
2017-Oct-12 19:30N 51°12' E 003°48'0 0.0
2017-Oct-12 19:00N 51°12' E 003°48'0 0.0
2017-Oct-12 18:30N 51°12' E 003°48'0 0.0
2017-Oct-12 18:00N 51°12' E 003°48'0 0.0
2017-Oct-12 17:30N 51°12' E 003°48'0 0.0
2017-Oct-12 17:00N 51°12' E 003°48'0 0.0
2017-Oct-12 16:30N 51°12' E 003°48'0 0.0
2017-Oct-12 16:00N 51°12' E 003°48'0 0.0
2017-Oct-12 15:30N 51°12' E 003°48'0 0.0
2017-Oct-12 15:00N 51°12' E 003°48'0 0.0
2017-Oct-12 14:30N 51°12' E 003°48'0 0.0
2017-Oct-12 14:00N 51°12' E 003°48'0 0.0
2017-Oct-12 13:30N 51°12' E 003°48'0 0.0
2017-Oct-12 13:00N 51°12' E 003°48'0 0.0
2017-Oct-12 12:27N 51°12' E 003°48'0 0.0
2017-Oct-12 11:54N 51°12' E 003°48'0 0.0
2017-Oct-12 11:30N 51°12' E 003°48'0 0.0
2017-Oct-12 10:57N 51°12' E 003°48'0 0.0
2017-Oct-12 10:30N 51°12' E 003°48'0 0.0
2017-Oct-12 10:00N 51°12' E 003°48'0 0.0
2017-Oct-12 09:30N 51°12' E 003°48'0 0.0
2017-Oct-12 09:00N 51°12' E 003°48'0 0.0
2017-Oct-12 08:30N 51°12' E 003°48'0 0.0
2017-Oct-12 08:00N 51°12' E 003°48'0 0.0
2017-Oct-12 07:30N 51°12' E 003°48'0 0.0
2017-Oct-12 07:00N 51°12' E 003°48'0 0.0
2017-Oct-12 06:30N 51°12' E 003°48'0 0.0
2017-Oct-12 05:57N 51°12' E 003°48'0 0.0
2017-Oct-12 05:30N 51°12' E 003°48'0 0.0
2017-Oct-12 05:00N 51°12' E 003°48'0 0.0
2017-Oct-12 04:30N 51°12' E 003°48'0 0.0
2017-Oct-12 04:00N 51°12' E 003°48'0 0.0
2017-Oct-12 03:27N 51°12' E 003°48'0 0.0
2017-Oct-12 02:57N 51°12' E 003°48'0 0.0
2017-Oct-12 02:27N 51°12' E 003°48'0 0.0
2017-Oct-12 02:00N 51°12' E 003°48'0 0.0
2017-Oct-12 01:27N 51°12' E 003°48'0 0.0
2017-Oct-12 00:57N 51°12' E 003°48'0 0.0
2017-Oct-12 00:30N 51°12' E 003°48'0 0.0
2017-Oct-12 00:00N 51°12' E 003°48'0 0.0
2017-Oct-11 23:30N 51°12' E 003°48'0 0.0
2017-Oct-11 23:00N 51°12' E 003°48'0 0.0
2017-Oct-11 22:30N 51°12' E 003°48'0 0.0
2017-Oct-11 22:00N 51°12' E 003°48'0 0.0
2017-Oct-11 21:30N 51°12' E 003°48'0 0.0
2017-Oct-11 21:00N 51°12' E 003°48'0 0.0
2017-Oct-11 20:30N 51°12' E 003°48'0 0.0
2017-Oct-11 20:00N 51°12' E 003°48'0 0.0
2017-Oct-11 19:30N 51°12' E 003°48'0 0.0
2017-Oct-11 19:00N 51°12' E 003°48'0 0.0
2017-Oct-11 18:30N 51°12' E 003°48'0 0.0
2017-Oct-11 18:00N 51°12' E 003°48'0 0.0
2017-Oct-11 17:30N 51°12' E 003°48'0 0.0
2017-Oct-11 17:00N 51°12' E 003°48'0 0.0
2017-Oct-11 00:00N 51°12' E 003°48'0 0.0
2017-Oct-10 23:30N 51°12' E 003°48'0 0.0
2017-Oct-10 23:00N 51°12' E 003°48'0 0.0
2017-Oct-10 22:30N 51°12' E 003°48'0 0.0
2017-Oct-10 22:00N 51°12' E 003°48'0 0.0
2017-Oct-10 21:30N 51°12' E 003°48'0 0.0
2017-Oct-10 20:59N 51°12' E 003°48'0 0.0
2017-Oct-10 20:29N 51°12' E 003°48'0 0.0
2017-Oct-10 19:59N 51°12' E 003°48'0 0.0
2017-Oct-10 19:29N 51°12' E 003°48'0 0.0
2017-Oct-10 18:59N 51°12' E 003°48'0 0.0
2017-Oct-10 18:29N 51°12' E 003°48'0 0.0
2017-Oct-10 17:44N 51°12' E 003°48'0 0.0
2017-Oct-10 17:29N 51°12' E 003°48'0 0.0
2017-Oct-10 16:59N 51°12' E 003°48'0 0.0
2017-Oct-10 16:29N 51°12' E 003°48'0 0.0
2017-Oct-10 15:59N 51°12' E 003°48'0 0.0
2017-Oct-10 15:29N 51°12' E 003°48'0 0.0
2017-Oct-10 14:59N 51°12' E 003°48'0 0.0
2017-Oct-10 13:59N 51°12' E 003°48'0 0.0
2017-Oct-10 13:29N 51°12' E 003°48'0 0.0
2017-Oct-10 12:59N 51°12' E 003°48'0 0.0
2017-Oct-10 12:29N 51°12' E 003°48'0 0.0
2017-Oct-10 11:59N 51°12' E 003°48'0 0.0
2017-Oct-10 11:29N 51°12' E 003°48'0 0.0
2017-Oct-10 10:59N 51°12' E 003°48'0 0.0
2017-Oct-10 10:26N 51°12' E 003°48'0 0.0
2017-Oct-10 09:59N 51°12' E 003°48'0 0.0
2017-Oct-10 09:29N 51°12' E 003°48'0 0.0
2017-Oct-10 08:59N 51°12' E 003°48'0 0.0
2017-Oct-10 08:29N 51°12' E 003°48'0 0.0
2017-Oct-10 07:59N 51°12' E 003°48'0 0.0
2017-Oct-10 07:26N 51°12' E 003°48'0 0.0
2017-Oct-10 06:59N 51°12' E 003°48'0 0.0
2017-Oct-10 06:29N 51°12' E 003°48'0 0.0
2017-Oct-10 05:59N 51°12' E 003°48'0 0.0
2017-Oct-10 05:29N 51°12' E 003°48'0 0.0
2017-Oct-10 04:59N 51°12' E 003°48'0 0.0
2017-Oct-10 04:29N 51°12' E 003°48'0 0.0
2017-Oct-10 03:59N 51°12' E 003°48'0 0.0
2017-Oct-10 03:29N 51°12' E 003°48'0 0.0
2017-Oct-10 02:59N 51°12' E 003°48'0 0.0
2017-Oct-10 02:26N 51°12' E 003°48'0 0.0
2017-Oct-10 01:59N 51°12' E 003°48'0 0.0
2017-Oct-10 01:29N 51°12' E 003°48'0 0.0
2017-Oct-10 00:56N 51°12' E 003°48'0 0.0
2017-Oct-10 00:29N 51°12' E 003°48'0 0.6
2017-Oct-10 00:00N 51°13' E 003°48'3 5.4
2017-Oct-09 23:30N 51°15' E 003°49'4 7.0
2017-Oct-09 23:00N 51°19' E 003°50'1 2.2
2017-Oct-09 22:30N 51°20' E 003°49'0 0.8
2017-Oct-09 22:00N 51°20' E 003°49'1 2.4
2017-Oct-09 21:30N 51°21' E 003°48'510.5
2017-Oct-09 21:00N 51°25' E 003°42'5 9.9
2017-Oct-09 20:30N 51°26' E 003°34'611.2
2017-Oct-09 20:00N 51°30' E 003°28'712.2
2017-Oct-09 19:24N 51°36' E 003°22'511.9
2017-Oct-09 19:00N 51°40' E 003°18'611.6
2017-Oct-09 18:30N 51°46' E 003°16'612.1
2017-Oct-09 18:00N 51°52' E 003°18'43513.1
2017-Oct-08 08:54N 57°49' E 010°30'614.1
2017-Oct-08 08:29N 57°50' E 010°41'613.4
2017-Oct-08 08:00N 57°46' E 010°50'713.4
2017-Oct-08 07:30N 57°41' E 010°59'713.6
2017-Oct-08 07:00N 57°37' E 011°08'713.5
2017-Oct-08 06:30N 57°32' E 011°18'713.5
2017-Oct-08 06:00N 57°27' E 011°26'713.6
2017-Oct-08 05:30N 57°21' E 011°31'713.3
2017-Oct-08 05:00N 57°15' E 011°35'713.2
2017-Oct-08 04:30N 57°08' E 011°39'713.3
2017-Oct-08 03:58N 57°02' E 011°43'5412.9
2017-Oct-07 23:45N 56°12' E 012°21'313.1
2017-Oct-07 23:30N 56°10' E 012°26'613.0
2017-Oct-07 23:00N 56°06' E 012°35'510.5
2017-Oct-07 22:30N 56°01' E 012°40'612.3
2017-Oct-07 22:00N 55°56' E 012°44'612.3
2017-Oct-07 21:30N 55°50' E 012°46'713.2
2017-Oct-07 21:00N 55°44' E 012°52'613.0
2017-Oct-07 20:30N 55°39' E 012°60'1 2.7
2017-Oct-07 20:01N 55°38' E 013°01'0 0.0
2017-Oct-07 19:25N 55°38' E 013°01'0 0.0
2017-Oct-07 18:58N 55°38' E 013°01'0 0.0
2017-Oct-07 18:25N 55°38' E 013°01'0 0.0
2017-Oct-07 17:58N 55°38' E 013°01'0 0.0
2017-Oct-07 17:25N 55°38' E 013°01'0 0.0
2017-Oct-07 16:52N 55°38' E 013°01'0 0.0
2017-Oct-07 16:28N 55°38' E 013°01'0 0.0
2017-Oct-07 16:01N 55°38' E 013°01'0 0.0
2017-Oct-07 15:22N 55°38' E 013°01'0 0.0
2017-Oct-07 14:55N 55°38' E 013°01'0 0.0
2017-Oct-07 13:54N 55°38' E 013°01'0 0.0
2017-Oct-07 13:30N 55°38' E 013°01'0 0.0
2017-Oct-07 12:51N 55°38' E 013°01'0 0.0
2017-Oct-07 12:30N 55°38' E 013°01'0 0.0
2017-Oct-07 12:00N 55°38' E 013°01'0 0.0
2017-Oct-07 11:30N 55°38' E 013°01'0 0.0
2017-Oct-07 11:00N 55°38' E 013°01'0 0.0
2017-Oct-07 10:30N 55°38' E 013°01'0 0.0
2017-Oct-07 09:57N 55°38' E 013°01'0 0.0
2017-Oct-07 09:27N 55°38' E 013°01'0 0.0
2017-Oct-07 09:00N 55°38' E 013°01'1 2.2
2017-Oct-07 08:30N 55°39' E 012°60'612.1
2017-Oct-07 08:00N 55°43' E 012°53'714.7
2017-Oct-07 07:30N 55°50' E 012°46'815.5
2017-Oct-07 07:00N 55°57' E 012°42'816.0
2017-Oct-07 06:30N 56°04' E 012°36'612.9
2017-Oct-07 06:00N 56°08' E 012°27'6913.9
2017-Oct-07 01:02N 57°11' E 011°35'114.9
2017-Oct-07 01:00N 57°12' E 011°34'714.5
2017-Oct-07 00:30N 57°18' E 011°30'714.7
2017-Oct-07 00:00N 57°25' E 011°25'714.3
2017-Oct-06 23:30N 57°31' E 011°17'714.5
2017-Oct-06 23:00N 57°36' E 011°07'814.7
2017-Oct-06 22:29N 57°41' E 010°57'714.8
2017-Oct-06 22:00N 57°46' E 010°47'714.2
2017-Oct-06 21:29N 57°47' E 010°33'715.3
2017-Oct-06 21:00N 57°47' E 010°20'8814.7
2017-Oct-06 15:01N 57°42' E 007°35'013.9
2017-Oct-06 15:00N 57°42' E 007°34'713.6
2017-Oct-06 14:30N 57°42' E 007°22'713.5
2017-Oct-06 14:00N 57°42' E 007°09'713.4
2017-Oct-06 13:30N 57°42' E 006°57'713.9
2017-Oct-06 13:00N 57°42' E 006°44'914.1
2017-Oct-06 12:23N 57°44' E 006°28'513.9
2017-Oct-06 12:00N 57°45' E 006°18'28813.8
2017-Oct-05 15:09N 58°42' W 002°38'213.7
2017-Oct-05 15:00N 58°42' W 002°42'612.7
2017-Oct-05 14:30N 58°43' W 002°54'4 8.3
2017-Oct-05 14:00N 58°43' W 003°02'3 5.8
2017-Oct-05 13:31N 58°43' W 003°07'3 6.6
2017-Oct-05 13:00N 58°43' W 003°14'510.0
2017-Oct-05 12:30N 58°43' W 003°23'612.8
2017-Oct-05 12:00N 58°43' W 003°35'713.5
2017-Oct-05 11:30N 58°43' W 003°48'713.8
2017-Oct-05 11:00N 58°43' W 004°02'  
Track history (hours):
 
Tides and Currents Weather Stations Pressure Air Temp Water Temp Dewpoint Dewpoint Depression Visibility Wind Speed Wind Dir Waves Ship Positions

Stella Polaris

Last reported at 2017-Oct-14 22:34 UTC. Time now 2017-Oct-19 09:27 UTC.
Position N 50°07' W 008°10'.

Length 117 m; draft 6.7 m.

Type: Ship (hazmat cat A). MMSI: 245911000.

Date/timePositionNaut miles runAvg speedWind from/ knotsBaromVisibWave heightAir tempDewpointWater temp
2017-Oct-14 22:34N 50°07' W 008°10'113.5
2017-Oct-14 22:30N 50°06' W 008°08'713.5
2017-Oct-14 22:00N 50°04' W 007°59'913.4
2017-Oct-14 21:22N 50°01' W 007°46'513.5
2017-Oct-14 20:57N 49°60' W 007°38'5613.7
2017-Oct-14 16:52N 49°44' W 006°15'2014.0
2017-Oct-14 15:27N 49°46' W 005°44'1313.9
2017-Oct-14 14:32N 49°48' W 005°25'313.5
2017-Oct-14 14:17N 49°48' W 005°20'413.3
2017-Oct-14 13:59N 49°48' W 005°13'613.2
2017-Oct-14 13:30N 49°49' W 005°04'1213.3
2017-Oct-14 12:38N 49°52' W 004°46'213.3
2017-Oct-14 12:30N 49°52' W 004°43'713.4
2017-Oct-14 12:00N 49°53' W 004°34'713.6
2017-Oct-14 11:29N 49°55' W 004°23'813.9
2017-Oct-14 10:57N 49°57' W 004°11'614.0
2017-Oct-14 10:31N 49°58' W 004°02'714.2
2017-Oct-14 10:00N 49°59' W 003°51'814.6
2017-Oct-14 09:29N 50°01' W 003°40'715.0
2017-Oct-14 09:00N 50°03' W 003°29'815.2
2017-Oct-14 08:31N 50°04' W 003°17'815.3
2017-Oct-14 08:01N 50°06' W 003°06'815.2
2017-Oct-14 07:30N 50°08' W 002°54'815.1
2017-Oct-14 07:01N 50°09' W 002°43'914.7
2017-Oct-14 06:25N 50°11' W 002°29'3213.4
2017-Oct-14 04:00N 50°18' W 001°40'4412.4
2017-Oct-14 00:25N 50°27' W 000°32'613.7
2017-Oct-14 00:00N 50°29' W 000°23'714.2
2017-Oct-13 23:30N 50°30' W 000°12'714.6
2017-Oct-13 23:00N 50°32' W 000°01'714.8
2017-Oct-13 22:30N 50°33' E 000°10'814.9
2017-Oct-13 21:58N 50°35' E 000°23'714.9
2017-Oct-13 21:30N 50°36' E 000°33'714.4
2017-Oct-13 21:01N 50°40' E 000°43'714.2
2017-Oct-13 20:30N 50°44' E 000°52'1913.2
2017-Oct-13 19:05N 50°55' E 001°17'212.5
2017-Oct-13 18:57N 50°56' E 001°19'512.1
2017-Oct-13 18:30N 50°60' E 001°25'611.7
2017-Oct-13 18:00N 51°04' E 001°32'611.2
2017-Oct-13 17:30N 51°08' E 001°38'611.7
2017-Oct-13 17:00N 51°12' E 001°44'612.2
2017-Oct-13 16:30N 51°17' E 001°50'713.1
2017-Oct-13 16:00N 51°22' E 001°56'611.2
2017-Oct-13 15:31N 51°24' E 002°05'813.9
2017-Oct-13 14:58N 51°21' E 002°16'713.8
2017-Oct-13 14:29N 51°22' E 002°26'714.3
2017-Oct-13 14:00N 51°23' E 002°37'712.4
2017-Oct-13 13:28N 51°22' E 002°48'714.7
2017-Oct-13 13:01N 51°23' E 002°58'714.4
2017-Oct-13 12:30N 51°24' E 003°10'815.2
2017-Oct-13 12:01N 51°25' E 003°22'815.1
2017-Oct-13 11:30N 51°26' E 003°34'510.5
2017-Oct-13 11:00N 51°24' E 003°42'612.3
2017-Oct-13 10:30N 51°20' E 003°49'0 0.3
2017-Oct-13 10:00N 51°20' E 003°49'2 5.0
2017-Oct-13 09:30N 51°17' E 003°50'3 6.3
2017-Oct-13 09:00N 51°14' E 003°49'2 3.7
2017-Oct-13 08:30N 51°12' E 003°48'0 0.0
2017-Oct-13 08:00N 51°12' E 003°48'0 0.0
2017-Oct-13 07:30N 51°12' E 003°48'0 0.0
2017-Oct-13 07:00N 51°12' E 003°48'0 0.0
2017-Oct-13 06:30N 51°12' E 003°48'0 0.0
2017-Oct-13 05:57N 51°12' E 003°48'0 0.0
2017-Oct-13 05:30N 51°12' E 003°48'0 0.0
2017-Oct-13 05:00N 51°12' E 003°48'0 0.0
2017-Oct-13 04:30N 51°12' E 003°48'0 0.0
2017-Oct-13 04:00N 51°12' E 003°48'0 0.0
2017-Oct-13 03:30N 51°12' E 003°48'0 0.0
2017-Oct-13 03:00N 51°12' E 003°48'0 0.0
2017-Oct-13 02:30N 51°12' E 003°48'0 0.0
2017-Oct-13 02:00N 51°12' E 003°48'0 0.0
2017-Oct-13 01:30N 51°12' E 003°48'0 0.0
2017-Oct-13 01:00N 51°12' E 003°48'0 0.0
2017-Oct-13 00:30N 51°12' E 003°48'0 0.0
2017-Oct-13 00:00N 51°12' E 003°48'0 0.0
2017-Oct-12 23:30N 51°12' E 003°48'0 0.0
2017-Oct-12 23:00N 51°12' E 003°48'0 0.0
2017-Oct-12 22:30N 51°12' E 003°48'0 0.0
2017-Oct-12 22:00N 51°12' E 003°48'0 0.0
2017-Oct-12 21:30N 51°12' E 003°48'0 0.0
2017-Oct-12 21:00N 51°12' E 003°48'0 0.0
2017-Oct-12 20:30N 51°12' E 003°48'0 0.0
2017-Oct-12 19:57N 51°12' E 003°48'0 0.0
2017-Oct-12 19:30N 51°12' E 003°48'0 0.0
2017-Oct-12 19:00N 51°12' E 003°48'0 0.0
2017-Oct-12 18:30N 51°12' E 003°48'0 0.0
2017-Oct-12 18:00N 51°12' E 003°48'0 0.0
2017-Oct-12 17:30N 51°12' E 003°48'0 0.0
2017-Oct-12 17:00N 51°12' E 003°48'0 0.0
2017-Oct-12 16:30N 51°12' E 003°48'0 0.0
2017-Oct-12 16:00N 51°12' E 003°48'0 0.0
2017-Oct-12 15:30N 51°12' E 003°48'0 0.0
2017-Oct-12 15:00N 51°12' E 003°48'0 0.0
2017-Oct-12 14:30N 51°12' E 003°48'0 0.0
2017-Oct-12 14:00N 51°12' E 003°48'0 0.0
2017-Oct-12 13:30N 51°12' E 003°48'0 0.0
2017-Oct-12 13:00N 51°12' E 003°48'0 0.0
2017-Oct-12 12:27N 51°12' E 003°48'0 0.0
2017-Oct-12 11:54N 51°12' E 003°48'0 0.0
2017-Oct-12 11:30N 51°12' E 003°48'0 0.0
2017-Oct-12 10:57N 51°12' E 003°48'0 0.0
2017-Oct-12 10:30N 51°12' E 003°48'0 0.0
2017-Oct-12 10:00N 51°12' E 003°48'0 0.0
2017-Oct-12 09:30N 51°12' E 003°48'0 0.0
2017-Oct-12 09:00N 51°12' E 003°48'0 0.0
2017-Oct-12 08:30N 51°12' E 003°48'0 0.0
2017-Oct-12 08:00N 51°12' E 003°48'0 0.0
2017-Oct-12 07:30N 51°12' E 003°48'0 0.0
2017-Oct-12 07:00N 51°12' E 003°48'0 0.0
2017-Oct-12 06:30N 51°12' E 003°48'0 0.0
2017-Oct-12 05:57N 51°12' E 003°48'0 0.0
2017-Oct-12 05:30N 51°12' E 003°48'0 0.0
2017-Oct-12 05:00N 51°12' E 003°48'0 0.0
2017-Oct-12 04:30N 51°12' E 003°48'0 0.0
2017-Oct-12 04:00N 51°12' E 003°48'0 0.0
2017-Oct-12 03:27N 51°12' E 003°48'0 0.0
2017-Oct-12 02:57N 51°12' E 003°48'0 0.0
2017-Oct-12 02:27N 51°12' E 003°48'0 0.0
2017-Oct-12 02:00N 51°12' E 003°48'0 0.0
2017-Oct-12 01:27N 51°12' E 003°48'0 0.0
2017-Oct-12 00:57N 51°12' E 003°48'0 0.0
2017-Oct-12 00:30N 51°12' E 003°48'0 0.0
2017-Oct-12 00:00N 51°12' E 003°48'0 0.0
2017-Oct-11 23:30N 51°12' E 003°48'0 0.0
2017-Oct-11 23:00N 51°12' E 003°48'0 0.0
2017-Oct-11 22:30N 51°12' E 003°48'0 0.0
2017-Oct-11 22:00N 51°12' E 003°48'0 0.0
2017-Oct-11 21:30N 51°12' E 003°48'0 0.0
2017-Oct-11 21:00N 51°12' E 003°48'0 0.0
2017-Oct-11 20:30N 51°12' E 003°48'0 0.0
2017-Oct-11 20:00N 51°12' E 003°48'0 0.0
2017-Oct-11 19:30N 51°12' E 003°48'0 0.0
2017-Oct-11 19:00N 51°12' E 003°48'0 0.0
2017-Oct-11 18:30N 51°12' E 003°48'0 0.0
2017-Oct-11 18:00N 51°12' E 003°48'0 0.0
2017-Oct-11 17:30N 51°12' E 003°48'0 0.0
2017-Oct-11 17:00N 51°12' E 003°48'0 0.0
2017-Oct-11 00:00N 51°12' E 003°48'0 0.0
2017-Oct-10 23:30N 51°12' E 003°48'0 0.0
2017-Oct-10 23:00N 51°12' E 003°48'0 0.0
2017-Oct-10 22:30N 51°12' E 003°48'0 0.0
2017-Oct-10 22:00N 51°12' E 003°48'0 0.0
2017-Oct-10 21:30N 51°12' E 003°48'0 0.0
2017-Oct-10 20:59N 51°12' E 003°48'0 0.0
2017-Oct-10 20:29N 51°12' E 003°48'0 0.0
2017-Oct-10 19:59N 51°12' E 003°48'0 0.0
2017-Oct-10 19:29N 51°12' E 003°48'0 0.0
2017-Oct-10 18:59N 51°12' E 003°48'0 0.0
2017-Oct-10 18:29N 51°12' E 003°48'0 0.0
2017-Oct-10 17:44N 51°12' E 003°48'0 0.0
2017-Oct-10 17:29N 51°12' E 003°48'0 0.0
2017-Oct-10 16:59N 51°12' E 003°48'0 0.0
2017-Oct-10 16:29N 51°12' E 003°48'0 0.0
2017-Oct-10 15:59N 51°12' E 003°48'0 0.0
2017-Oct-10 15:29N 51°12' E 003°48'0 0.0
2017-Oct-10 14:59N 51°12' E 003°48'0 0.0
2017-Oct-10 13:59N 51°12' E 003°48'0 0.0
2017-Oct-10 13:29N 51°12' E 003°48'0 0.0
2017-Oct-10 12:59N 51°12' E 003°48'0 0.0
2017-Oct-10 12:29N 51°12' E 003°48'0 0.0
2017-Oct-10 11:59N 51°12' E 003°48'0 0.0
2017-Oct-10 11:29N 51°12' E 003°48'0 0.0
2017-Oct-10 10:59N 51°12' E 003°48'0 0.0
2017-Oct-10 10:26N 51°12' E 003°48'0 0.0
2017-Oct-10 09:59N 51°12' E 003°48'0 0.0
2017-Oct-10 09:29N 51°12' E 003°48'0 0.0
2017-Oct-10 08:59N 51°12' E 003°48'0 0.0
2017-Oct-10 08:29N 51°12' E 003°48'0 0.0
2017-Oct-10 07:59N 51°12' E 003°48'0 0.0
2017-Oct-10 07:26N 51°12' E 003°48'0 0.0
2017-Oct-10 06:59N 51°12' E 003°48'0 0.0
2017-Oct-10 06:29N 51°12' E 003°48'0 0.0
2017-Oct-10 05:59N 51°12' E 003°48'0 0.0
2017-Oct-10 05:29N 51°12' E 003°48'0 0.0
2017-Oct-10 04:59N 51°12' E 003°48'0 0.0
2017-Oct-10 04:29N 51°12' E 003°48'0 0.0
2017-Oct-10 03:59N 51°12' E 003°48'0 0.0
2017-Oct-10 03:29N 51°12' E 003°48'0 0.0
2017-Oct-10 02:59N 51°12' E 003°48'0 0.0
2017-Oct-10 02:26N 51°12' E 003°48'0 0.0
2017-Oct-10 01:59N 51°12' E 003°48'0 0.0
2017-Oct-10 01:29N 51°12' E 003°48'0 0.0
2017-Oct-10 00:56N 51°12' E 003°48'0 0.0
2017-Oct-10 00:29N 51°12' E 003°48'0 0.6
2017-Oct-10 00:00N 51°13' E 003°48'3 5.4
2017-Oct-09 23:30N 51°15' E 003°49'4 7.0
2017-Oct-09 23:00N 51°19' E 003°50'1 2.2
2017-Oct-09 22:30N 51°20' E 003°49'0 0.8
2017-Oct-09 22:00N 51°20' E 003°49'1 2.4
2017-Oct-09 21:30N 51°21' E 003°48'510.5
2017-Oct-09 21:00N 51°25' E 003°42'5 9.9
2017-Oct-09 20:30N 51°26' E 003°34'611.2
2017-Oct-09 20:00N 51°30' E 003°28'712.2
2017-Oct-09 19:24N 51°36' E 003°22'511.9
2017-Oct-09 19:00N 51°40' E 003°18'611.6
2017-Oct-09 18:30N 51°46' E 003°16'612.1
2017-Oct-09 18:00N 51°52' E 003°18'43513.1
2017-Oct-08 08:54N 57°49' E 010°30'614.1
2017-Oct-08 08:29N 57°50' E 010°41'613.4
2017-Oct-08 08:00N 57°46' E 010°50'713.4
2017-Oct-08 07:30N 57°41' E 010°59'713.6
2017-Oct-08 07:00N 57°37' E 011°08'713.5
2017-Oct-08 06:30N 57°32' E 011°18'713.5
2017-Oct-08 06:00N 57°27' E 011°26'713.6
2017-Oct-08 05:30N 57°21' E 011°31'713.3
2017-Oct-08 05:00N 57°15' E 011°35'713.2
2017-Oct-08 04:30N 57°08' E 011°39'713.3
2017-Oct-08 03:58N 57°02' E 011°43'5412.9
2017-Oct-07 23:45N 56°12' E 012°21'313.1
2017-Oct-07 23:30N 56°10' E 012°26'613.0
2017-Oct-07 23:00N 56°06' E 012°35'510.5
2017-Oct-07 22:30N 56°01' E 012°40'612.3
2017-Oct-07 22:00N 55°56' E 012°44'612.3
2017-Oct-07 21:30N 55°50' E 012°46'713.2
2017-Oct-07 21:00N 55°44' E 012°52'613.0
2017-Oct-07 20:30N 55°39' E 012°60'1 2.7
2017-Oct-07 20:01N 55°38' E 013°01'0 0.0
2017-Oct-07 19:25N 55°38' E 013°01'0 0.0
2017-Oct-07 18:58N 55°38' E 013°01'0 0.0
2017-Oct-07 18:25N 55°38' E 013°01'0 0.0
2017-Oct-07 17:58N 55°38' E 013°01'0 0.0
2017-Oct-07 17:25N 55°38' E 013°01'0 0.0
2017-Oct-07 16:52N 55°38' E 013°01'0 0.0
2017-Oct-07 16:28N 55°38' E 013°01'0 0.0
2017-Oct-07 16:01N 55°38' E 013°01'0 0.0
2017-Oct-07 15:22N 55°38' E 013°01'0 0.0
2017-Oct-07 14:55N 55°38' E 013°01'0 0.0
2017-Oct-07 13:54N 55°38' E 013°01'0 0.0
2017-Oct-07 13:30N 55°38' E 013°01'0 0.0
2017-Oct-07 12:51N 55°38' E 013°01'0 0.0
2017-Oct-07 12:30N 55°38' E 013°01'0 0.0
2017-Oct-07 12:00N 55°38' E 013°01'0 0.0
2017-Oct-07 11:30N 55°38' E 013°01'0 0.0
2017-Oct-07 11:00N 55°38' E 013°01'0 0.0
2017-Oct-07 10:30N 55°38' E 013°01'0 0.0
2017-Oct-07 09:57N 55°38' E 013°01'0 0.0
2017-Oct-07 09:27N 55°38' E 013°01'0 0.0
2017-Oct-07 09:00N 55°38' E 013°01'1 2.2
2017-Oct-07 08:30N 55°39' E 012°60'612.1
2017-Oct-07 08:00N 55°43' E 012°53'714.7
2017-Oct-07 07:30N 55°50' E 012°46'815.5
2017-Oct-07 07:00N 55°57' E 012°42'816.0
2017-Oct-07 06:30N 56°04' E 012°36'612.9
2017-Oct-07 06:00N 56°08' E 012°27'6913.9
2017-Oct-07 01:02N 57°11' E 011°35'114.9
2017-Oct-07 01:00N 57°12' E 011°34'714.5
2017-Oct-07 00:30N 57°18' E 011°30'714.7
2017-Oct-07 00:00N 57°25' E 011°25'714.3
2017-Oct-06 23:30N 57°31' E 011°17'714.5
2017-Oct-06 23:00N 57°36' E 011°07'814.7
2017-Oct-06 22:29N 57°41' E 010°57'714.8
2017-Oct-06 22:00N 57°46' E 010°47'714.2
2017-Oct-06 21:29N 57°47' E 010°33'715.3
2017-Oct-06 21:00N 57°47' E 010°20'8814.7
2017-Oct-06 15:01N 57°42' E 007°35'013.9
2017-Oct-06 15:00N 57°42' E 007°34'713.6
2017-Oct-06 14:30N 57°42' E 007°22'713.5
2017-Oct-06 14:00N 57°42' E 007°09'713.4
2017-Oct-06 13:30N 57°42' E 006°57'713.9
2017-Oct-06 13:00N 57°42' E 006°44'914.1
2017-Oct-06 12:23N 57°44' E 006°28'513.9
2017-Oct-06 12:00N 57°45' E 006°18'28813.8
2017-Oct-05 15:09N 58°42' W 002°38'213.7
2017-Oct-05 15:00N 58°42' W 002°42'612.7
2017-Oct-05 14:30N 58°43' W 002°54'4 8.3
2017-Oct-05 14:00N 58°43' W 003°02'3 5.8
2017-Oct-05 13:31N 58°43' W 003°07'3 6.6
2017-Oct-05 13:00N 58°43' W 003°14'510.0
2017-Oct-05 12:30N 58°43' W 003°23'612.8
2017-Oct-05 12:00N 58°43' W 003°35'713.5
2017-Oct-05 11:30N 58°43' W 003°48'713.8
2017-Oct-05 11:00N 58°43' W 004°02'  

Dump ship's entire track history